sensor_id;sensor_type;location;lat;lon;timestamp;pressure;altitude;pressure_sealevel;temperature;humidity
5996;BME280;3026;53.612;7.278;2023-04-25T00:00:57;100672.84;;;7.07;100.00
5996;BME280;3026;53.612;7.278;2023-04-25T00:03:24;100672.13;;;7.05;100.00
5996;BME280;3026;53.612;7.278;2023-04-25T00:05:55;100681.97;;;7.06;100.00
5996;BME280;3026;53.612;7.278;2023-04-25T00:08:24;100672.44;;;7.01;100.00
5996;BME280;3026;53.612;7.278;2023-04-25T00:10:51;100673.47;;;7.00;100.00
5996;BME280;3026;53.612;7.278;2023-04-25T00:13:18;100675.16;;;7.01;100.00
5996;BME280;3026;53.612;7.278;2023-04-25T00:15:45;100688.72;;;7.01;100.00
5996;BME280;3026;53.612;7.278;2023-04-25T00:18:13;100680.91;;;6.98;100.00
5996;BME280;3026;53.612;7.278;2023-04-25T00:20:40;100684.47;;;6.99;100.00
5996;BME280;3026;53.612;7.278;2023-04-25T00:23:09;100694.59;;;6.97;100.00
5996;BME280;3026;53.612;7.278;2023-04-25T00:25:39;100684.63;;;6.97;100.00
5996;BME280;3026;53.612;7.278;2023-04-25T00:28:06;100692.91;;;6.96;100.00
5996;BME280;3026;53.612;7.278;2023-04-25T00:30:32;100686.91;;;6.92;100.00
5996;BME280;3026;53.612;7.278;2023-04-25T00:32:59;100691.78;;;6.89;100.00
5996;BME280;3026;53.612;7.278;2023-04-25T00:35:29;100691.94;;;6.87;100.00
5996;BME280;3026;53.612;7.278;2023-04-25T00:37:56;100692.41;;;6.83;100.00
5996;BME280;3026;53.612;7.278;2023-04-25T00:40:23;100684.72;;;6.78;100.00
5996;BME280;3026;53.612;7.278;2023-04-25T00:42:52;100689.03;;;6.71;100.00
5996;BME280;3026;53.612;7.278;2023-04-25T00:45:19;100687.66;;;6.67;100.00
5996;BME280;3026;53.612;7.278;2023-04-25T00:47:46;100682.22;;;6.67;100.00
5996;BME280;3026;53.612;7.278;2023-04-25T00:50:14;100686.53;;;6.60;100.00
5996;BME280;3026;53.612;7.278;2023-04-25T00:52:43;100683.38;;;6.64;100.00
5996;BME280;3026;53.612;7.278;2023-04-25T00:55:11;100688.50;;;6.67;100.00
5996;BME280;3026;53.612;7.278;2023-04-25T00:57:39;100690.34;;;6.67;100.00
5996;BME280;3026;53.612;7.278;2023-04-25T01:00:11;100696.19;;;6.72;100.00
5996;BME280;3026;53.612;7.278;2023-04-25T01:02:40;100702.16;;;6.76;100.00
5996;BME280;3026;53.612;7.278;2023-04-25T01:05:07;100705.72;;;6.76;100.00
5996;BME280;3026;53.612;7.278;2023-04-25T01:07:35;100697.59;;;6.76;100.00
5996;BME280;3026;53.612;7.278;2023-04-25T01:10:03;100697.91;;;6.73;100.00
5996;BME280;3026;53.612;7.278;2023-04-25T01:12:30;100696.19;;;6.72;100.00
5996;BME280;3026;53.612;7.278;2023-04-25T01:14:57;100686.78;;;6.66;100.00
5996;BME280;3026;53.612;7.278;2023-04-25T01:17:25;100694.06;;;6.66;100.00
5996;BME280;3026;53.612;7.278;2023-04-25T01:19:52;100691.66;;;6.63;100.00
5996;BME280;3026;53.612;7.278;2023-04-25T01:22:21;100687.53;;;6.59;100.00
5996;BME280;3026;53.612;7.278;2023-04-25T01:24:48;100687.69;;;6.57;100.00
5996;BME280;3026;53.612;7.278;2023-04-25T01:27:15;100692.56;;;6.54;100.00
5996;BME280;3026;53.612;7.278;2023-04-25T01:29:42;100698.28;;;6.51;100.00
5996;BME280;3026;53.612;7.278;2023-04-25T01:32:10;100697.88;;;6.46;100.00
5996;BME280;3026;53.612;7.278;2023-04-25T01:34:37;100703.75;;;6.41;100.00
5996;BME280;3026;53.612;7.278;2023-04-25T01:37:04;100698.91;;;6.35;100.00
5996;BME280;3026;53.612;7.278;2023-04-25T01:39:32;100703.78;;;6.31;100.00
5996;BME280;3026;53.612;7.278;2023-04-25T01:42:00;100707.22;;;6.24;100.00
5996;BME280;3026;53.612;7.278;2023-04-25T01:44:27;100704.41;;;6.25;100.00
5996;BME280;3026;53.612;7.278;2023-04-25T01:46:54;100700.69;;;6.26;100.00
5996;BME280;3026;53.612;7.278;2023-04-25T01:49:21;100693.56;;;6.25;100.00
5996;BME280;3026;53.612;7.278;2023-04-25T01:51:49;100715.34;;;6.24;100.00
5996;BME280;3026;53.612;7.278;2023-04-25T01:54:15;100715.50;;;6.22;100.00
5996;BME280;3026;53.612;7.278;2023-04-25T01:56:50;100708.69;;;6.18;100.00
5996;BME280;3026;53.612;7.278;2023-04-25T01:59:18;100713.78;;;6.21;100.00
5996;BME280;3026;53.612;7.278;2023-04-25T02:01:45;100717.06;;;6.25;100.00
5996;BME280;3026;53.612;7.278;2023-04-25T02:04:12;100717.94;;;6.25;100.00
5996;BME280;3026;53.612;7.278;2023-04-25T02:06:38;100725.06;;;6.26;100.00
5996;BME280;3026;53.612;7.278;2023-04-25T02:09:05;100733.56;;;6.31;100.00
5996;BME280;3026;53.612;7.278;2023-04-25T02:11:32;100734.97;;;6.35;100.00
5996;BME280;3026;53.612;7.278;2023-04-25T02:14:00;100743.41;;;6.32;100.00
5996;BME280;3026;53.612;7.278;2023-04-25T02:16:27;100743.81;;;6.37;100.00
5996;BME280;3026;53.612;7.278;2023-04-25T02:18:56;100738.25;;;6.39;100.00
5996;BME280;3026;53.612;7.278;2023-04-25T02:21:22;100734.97;;;6.35;100.00
5996;BME280;3026;53.612;7.278;2023-04-25T02:23:49;100744.78;;;6.36;100.00
5996;BME280;3026;53.612;7.278;2023-04-25T02:26:17;100749.41;;;6.26;100.00
5996;BME280;3026;53.612;7.278;2023-04-25T02:28:44;100740.31;;;6.18;100.00
5996;BME280;3026;53.612;7.278;2023-04-25T02:31:12;100734.63;;;6.11;100.00
5996;BME280;3026;53.612;7.278;2023-04-25T02:33:39;100737.31;;;6.11;100.00
5996;BME280;3026;53.612;7.278;2023-04-25T02:36:06;100742.75;;;6.11;100.00
5996;BME280;3026;53.612;7.278;2023-04-25T02:38:33;100741.03;;;6.10;100.00
5996;BME280;3026;53.612;7.278;2023-04-25T02:41:00;100741.75;;;6.12;100.00
5996;BME280;3026;53.612;7.278;2023-04-25T02:43:27;100744.19;;;6.15;100.00
5996;BME280;3026;53.612;7.278;2023-04-25T02:45:54;100735.19;;;6.14;100.00
5996;BME280;3026;53.612;7.278;2023-04-25T02:48:22;100736.31;;;6.22;100.00
5996;BME280;3026;53.612;7.278;2023-04-25T02:50:49;100731.47;;;6.25;100.00
5996;BME280;3026;53.612;7.278;2023-04-25T02:53:16;100736.88;;;6.25;100.00
5996;BME280;3026;53.612;7.278;2023-04-25T02:55:43;100734.03;;;6.27;100.00
5996;BME280;3026;53.612;7.278;2023-04-25T02:58:10;100733.19;;;6.26;100.00
5996;BME280;3026;53.612;7.278;2023-04-25T03:00:37;100741.38;;;6.34;100.00
5996;BME280;3026;53.612;7.278;2023-04-25T03:03:04;100735.69;;;6.37;100.00
5996;BME280;3026;53.612;7.278;2023-04-25T03:05:32;100742.53;;;6.41;100.00
5996;BME280;3026;53.612;7.278;2023-04-25T03:07:59;100738.50;;;6.46;100.00
5996;BME280;3026;53.612;7.278;2023-04-25T03:10:26;100731.81;;;6.50;100.00
5996;BME280;3026;53.612;7.278;2023-04-25T03:12:53;100743.50;;;6.50;100.00
5996;BME280;3026;53.612;7.278;2023-04-25T03:15:20;100750.78;;;6.50;100.00
5996;BME280;3026;53.612;7.278;2023-04-25T03:17:47;100748.75;;;6.52;100.00
5996;BME280;3026;53.612;7.278;2023-04-25T03:20:14;100743.34;;;6.52;100.00
5996;BME280;3026;53.612;7.278;2023-04-25T03:22:42;100747.06;;;6.51;100.00
5996;BME280;3026;53.612;7.278;2023-04-25T03:25:09;100743.66;;;6.49;100.00
5996;BME280;3026;53.612;7.278;2023-04-25T03:27:36;100749.06;;;6.49;100.00
5996;BME280;3026;53.612;7.278;2023-04-25T03:30:04;100749.34;;;6.46;100.00
5996;BME280;3026;53.612;7.278;2023-04-25T03:32:31;100749.94;;;6.39;100.00
5996;BME280;3026;53.612;7.278;2023-04-25T03:34:58;100751.94;;;6.37;100.00
5996;BME280;3026;53.612;7.278;2023-04-25T03:37:26;100752.22;;;6.34;100.00
5996;BME280;3026;53.612;7.278;2023-04-25T03:39:54;100743.69;;;6.29;100.00
5996;BME280;3026;53.612;7.278;2023-04-25T03:42:21;100748.13;;;6.30;100.00
5996;BME280;3026;53.612;7.278;2023-04-25T03:44:52;100756.53;;;6.27;100.00
5996;BME280;3026;53.612;7.278;2023-04-25T03:47:21;100748.00;;;6.22;100.00
5996;BME280;3026;53.612;7.278;2023-04-25T03:49:48;100762.81;;;6.18;100.00
5996;BME280;3026;53.612;7.278;2023-04-25T03:52:17;100767.81;;;6.13;100.00
5996;BME280;3026;53.612;7.278;2023-04-25T03:54:44;100766.53;;;6.17;100.00
5996;BME280;3026;53.612;7.278;2023-04-25T03:57:12;100761.13;;;6.17;100.00
5996;BME280;3026;53.612;7.278;2023-04-25T03:59:39;100769.94;;;6.19;100.00
5996;BME280;3026;53.612;7.278;2023-04-25T04:02:06;100769.66;;;6.22;100.00
5996;BME280;3026;53.612;7.278;2023-04-25T04:04:33;100765.94;;;6.23;100.00
5996;BME280;3026;53.612;7.278;2023-04-25T04:06:59;100762.53;;;6.21;100.00
5996;BME280;3026;53.612;7.278;2023-04-25T04:09:26;100772.78;;;6.27;100.00
5996;BME280;3026;53.612;7.278;2023-04-25T04:11:54;100770.78;;;6.29;100.00
5996;BME280;3026;53.612;7.278;2023-04-25T04:14:22;100774.19;;;6.31;100.00
5996;BME280;3026;53.612;7.278;2023-04-25T04:16:49;100781.31;;;6.32;100.00
5996;BME280;3026;53.612;7.278;2023-04-25T04:19:17;100783.00;;;6.33;100.00
5996;BME280;3026;53.612;7.278;2023-04-25T04:21:44;100793.69;;;6.35;100.00
5996;BME280;3026;53.612;7.278;2023-04-25T04:24:10;100792.84;;;6.34;100.00
5996;BME280;3026;53.612;7.278;2023-04-25T04:26:37;100795.56;;;6.34;100.00
5996;BME280;3026;53.612;7.278;2023-04-25T04:29:05;100802.66;;;6.35;100.00
5996;BME280;3026;53.612;7.278;2023-04-25T04:31:33;100798.97;;;6.36;100.00
5996;BME280;3026;53.612;7.278;2023-04-25T04:34:01;100790.84;;;6.36;100.00
5996;BME280;3026;53.612;7.278;2023-04-25T04:36:28;100801.41;;;6.39;100.00
5996;BME280;3026;53.612;7.278;2023-04-25T04:38:55;100802.41;;;6.38;100.00
5996;BME280;3026;53.612;7.278;2023-04-25T04:41:22;100804.13;;;6.39;100.00
5996;BME280;3026;53.612;7.278;2023-04-25T04:43:49;100802.97;;;6.42;100.00
5996;BME280;3026;53.612;7.278;2023-04-25T04:46:18;100802.66;;;6.45;100.00
5996;BME280;3026;53.612;7.278;2023-04-25T04:48:46;100820.06;;;6.42;100.00
5996;BME280;3026;53.612;7.278;2023-04-25T04:51:13;100820.06;;;6.42;100.00
5996;BME280;3026;53.612;7.278;2023-04-25T04:53:40;100816.66;;;6.40;100.00
5996;BME280;3026;53.612;7.278;2023-04-25T04:56:07;100821.38;;;6.38;100.00
5996;BME280;3026;53.612;7.278;2023-04-25T04:58:34;100816.94;;;6.37;100.00
5996;BME280;3026;53.612;7.278;2023-04-25T05:01:01;100812.66;;;6.35;100.00
5996;BME280;3026;53.612;7.278;2023-04-25T05:03:28;100818.66;;;6.38;100.00
5996;BME280;3026;53.612;7.278;2023-04-25T05:05:56;100828.19;;;6.42;100.00
5996;BME280;3026;53.612;7.278;2023-04-25T05:08:23;100836.59;;;6.39;100.00
5996;BME280;3026;53.612;7.278;2023-04-25T05:10:50;100839.59;;;6.36;100.00
5996;BME280;3026;53.612;7.278;2023-04-25T05:13:17;100846.00;;;6.35;100.00
5996;BME280;3026;53.612;7.278;2023-04-25T05:15:44;100838.88;;;6.34;100.00
5996;BME280;3026;53.612;7.278;2023-04-25T05:18:11;100842.88;;;6.30;100.00
5996;BME280;3026;53.612;7.278;2023-04-25T05:20:37;100848.84;;;6.34;100.00
5996;BME280;3026;53.612;7.278;2023-04-25T05:23:06;100847.59;;;6.38;100.00
5996;BME280;3026;53.612;7.278;2023-04-25T05:25:33;100850.84;;;6.41;100.00
5996;BME280;3026;53.612;7.278;2023-04-25T05:28:00;100847.28;;;6.51;100.00
5996;BME280;3026;53.612;7.278;2023-04-25T05:30:26;100849.13;;;6.50;100.00
5996;BME280;3026;53.612;7.278;2023-04-25T05:32:54;100849.97;;;6.51;100.00
5996;BME280;3026;53.612;7.278;2023-04-25T05:35:21;100861.94;;;6.58;100.00
5996;BME280;3026;53.612;7.278;2023-04-25T05:37:48;100867.34;;;6.58;100.00
5996;BME280;3026;53.612;7.278;2023-04-25T05:40:16;100857.66;;;6.55;100.00
5996;BME280;3026;53.612;7.278;2023-04-25T05:42:43;100866.06;;;6.62;100.00
5996;BME280;3026;53.612;7.278;2023-04-25T05:45:10;100871.88;;;6.67;100.00
5996;BME280;3026;53.612;7.278;2023-04-25T05:47:37;100876.75;;;6.73;100.00
5996;BME280;3026;53.612;7.278;2023-04-25T05:50:05;100878.16;;;6.77;100.00
5996;BME280;3026;53.612;7.278;2023-04-25T05:52:32;100881.56;;;6.79;100.00
5996;BME280;3026;53.612;7.278;2023-04-25T05:54:58;100886.66;;;6.82;100.00
5996;BME280;3026;53.612;7.278;2023-04-25T05:57:27;100880.13;;;6.85;100.00
5996;BME280;3026;53.612;7.278;2023-04-25T05:59:54;100882.38;;;6.89;100.00
5996;BME280;3026;53.612;7.278;2023-04-25T06:02:21;100885.78;;;6.91;100.00
5996;BME280;3026;53.612;7.278;2023-04-25T06:04:49;100883.25;;;6.90;100.00
5996;BME280;3026;53.612;7.278;2023-04-25T06:07:16;100883.53;;;6.87;100.00
5996;BME280;3026;53.612;7.278;2023-04-25T06:09:43;100893.53;;;6.86;100.00
5996;BME280;3026;53.612;7.278;2023-04-25T06:12:10;100877.13;;;6.78;100.00
5996;BME280;3026;53.612;7.278;2023-04-25T06:14:38;100906.38;;;6.84;100.00
5996;BME280;3026;53.612;7.278;2023-04-25T06:17:05;100893.53;;;6.86;100.00
5996;BME280;3026;53.612;7.278;2023-04-25T06:19:34;100890.22;;;6.83;100.00
5996;BME280;3026;53.612;7.278;2023-04-25T06:22:02;100906.94;;;6.88;100.00
5996;BME280;3026;53.612;7.278;2023-04-25T06:24:28;100903.75;;;6.92;100.00
5996;BME280;3026;53.612;7.278;2023-04-25T06:26:55;100899.03;;;6.94;100.00
5996;BME280;3026;53.612;7.278;2023-04-25T06:29:22;100905.91;;;6.98;100.00
5996;BME280;3026;53.612;7.278;2023-04-25T06:31:50;100898.16;;;7.03;100.00
5996;BME280;3026;53.612;7.278;2023-04-25T06:34:17;100913.00;;;7.09;100.00
5996;BME280;3026;53.612;7.278;2023-04-25T06:36:44;100899.59;;;7.08;100.00
5996;BME280;3026;53.612;7.278;2023-04-25T06:39:11;100910.44;;;7.08;100.00
5996;BME280;3026;53.612;7.278;2023-04-25T06:41:37;100908.00;;;7.05;100.00
5996;BME280;3026;53.612;7.278;2023-04-25T06:44:04;100911.44;;;7.07;100.00
5996;BME280;3026;53.612;7.278;2023-04-25T06:46:31;100906.81;;;7.17;100.00
5996;BME280;3026;53.612;7.278;2023-04-25T06:48:59;100903.53;;;7.23;100.00
5996;BME280;3026;53.612;7.278;2023-04-25T06:51:26;100914.19;;;7.34;100.00
5996;BME280;3026;53.612;7.278;2023-04-25T06:53:55;100917.84;;;7.43;100.00
5996;BME280;3026;53.612;7.278;2023-04-25T06:56:21;100927.22;;;7.48;100.00
5996;BME280;3026;53.612;7.278;2023-04-25T06:58:48;100943.13;;;7.43;100.00
5996;BME280;3026;53.612;7.278;2023-04-25T07:01:15;100943.00;;;7.35;100.00
5996;BME280;3026;53.612;7.278;2023-04-25T07:03:42;100960.47;;;7.23;100.00
5996;BME280;3026;53.612;7.278;2023-04-25T07:06:10;100951.09;;;7.08;100.00
5996;BME280;3026;53.612;7.278;2023-04-25T07:08:37;100948.84;;;6.93;100.00
5996;BME280;3026;53.612;7.278;2023-04-25T07:11:04;100962.16;;;6.87;100.00
5996;BME280;3026;53.612;7.278;2023-04-25T07:13:31;100959.00;;;6.82;100.00
5996;BME280;3026;53.612;7.278;2023-04-25T07:15:57;100960.69;;;6.83;100.00
5996;BME280;3026;53.612;7.278;2023-04-25T07:18:25;100953.16;;;6.86;100.00
5996;BME280;3026;53.612;7.278;2023-04-25T07:20:52;100963.69;;;6.89;100.00
5996;BME280;3026;53.612;7.278;2023-04-25T07:23:20;100965.00;;;6.95;100.00
5996;BME280;3026;53.612;7.278;2023-04-25T07:25:47;100957.97;;;7.02;100.00
5996;BME280;3026;53.612;7.278;2023-04-25T07:28:14;100958.09;;;7.10;100.00
5996;BME280;3026;53.612;7.278;2023-04-25T07:30:40;100953.91;;;7.16;100.00
5996;BME280;3026;53.612;7.278;2023-04-25T07:33:07;100965.19;;;7.21;100.00
5996;BME280;3026;53.612;7.278;2023-04-25T07:35:34;100967.28;;;7.27;100.00
5996;BME280;3026;53.612;7.278;2023-04-25T07:38:01;100967.13;;;7.38;100.00
5996;BME280;3026;53.612;7.278;2023-04-25T07:40:30;100960.09;;;7.45;100.00
5996;BME280;3026;53.612;7.278;2023-04-25T07:42:57;100968.03;;;7.56;100.00
5996;BME280;3026;53.612;7.278;2023-04-25T07:45:23;100971.97;;;7.72;100.00
5996;BME280;3026;53.612;7.278;2023-04-25T07:47:50;100976.50;;;7.81;100.00
5996;BME280;3026;53.612;7.278;2023-04-25T07:50:17;100979.59;;;7.86;100.00
5996;BME280;3026;53.612;7.278;2023-04-25T07:52:44;100986.88;;;7.85;100.00
5996;BME280;3026;53.612;7.278;2023-04-25T07:55:11;100990.44;;;7.86;100.00
5996;BME280;3026;53.612;7.278;2023-04-25T07:57:39;100997.59;;;7.87;100.00
5996;BME280;3026;53.612;7.278;2023-04-25T08:00:07;100995.28;;;7.92;100.00
5996;BME280;3026;53.612;7.278;2023-04-25T08:02:37;100995.88;;;7.86;100.00
5996;BME280;3026;53.612;7.278;2023-04-25T08:05:04;101030.47;;;7.84;100.00
5996;BME280;3026;53.612;7.278;2023-04-25T08:07:33;101050.97;;;7.69;100.00
5996;BME280;3026;53.612;7.278;2023-04-25T08:10:00;101055.63;;;7.39;100.00
5996;BME280;3026;53.612;7.278;2023-04-25T08:12:27;101030.59;;;7.18;100.00
5996;BME280;3026;53.612;7.278;2023-04-25T08:14:55;101036.44;;;7.03;100.00
5996;BME280;3026;53.612;7.278;2023-04-25T08:17:22;101034.59;;;6.94;100.00
5996;BME280;3026;53.612;7.278;2023-04-25T08:19:49;101042.84;;;7.02;100.00
5996;BME280;3026;53.612;7.278;2023-04-25T08:22:15;101036.41;;;7.23;100.00
5996;BME280;3026;53.612;7.278;2023-04-25T08:24:42;101034.34;;;7.44;100.00
5996;BME280;3026;53.612;7.278;2023-04-25T08:27:09;101038.09;;;7.71;100.00
5996;BME280;3026;53.612;7.278;2023-04-25T08:29:36;101037.34;;;7.88;100.00
5996;BME280;3026;53.612;7.278;2023-04-25T08:32:04;101033.78;;;8.05;100.00
5996;BME280;3026;53.612;7.278;2023-04-25T08:34:31;101043.53;;;8.26;100.00
5996;BME280;3026;53.612;7.278;2023-04-25T08:36:58;101037.00;;;8.46;100.00
5996;BME280;3026;53.612;7.278;2023-04-25T08:39:25;101035.28;;;8.63;100.00
5996;BME280;3026;53.612;7.278;2023-04-25T08:41:52;101044.44;;;8.80;100.00
5996;BME280;3026;53.612;7.278;2023-04-25T08:44:20;101049.81;;;8.89;100.00
5996;BME280;3026;53.612;7.278;2023-04-25T08:46:48;101070.41;;;8.92;100.00
5996;BME280;3026;53.612;7.278;2023-04-25T08:49:18;101049.28;;;8.86;100.00
5996;BME280;3026;53.612;7.278;2023-04-25T08:51:46;101069.53;;;8.91;100.00
5996;BME280;3026;53.612;7.278;2023-04-25T08:54:14;101067.22;;;8.96;100.00
5996;BME280;3026;53.612;7.278;2023-04-25T08:56:44;101066.69;;;8.93;100.00
5996;BME280;3026;53.612;7.278;2023-04-25T08:59:11;101073.88;;;9.02;100.00
5996;BME280;3026;53.612;7.278;2023-04-25T09:01:38;101073.88;;;9.02;100.00
5996;BME280;3026;53.612;7.278;2023-04-25T09:04:05;101072.91;;;9.03;100.00
5996;BME280;3026;53.612;7.278;2023-04-25T09:06:34;101078.94;;;8.97;100.00
5996;BME280;3026;53.612;7.278;2023-04-25T09:09:03;101097.91;;;8.89;100.00
5996;BME280;3026;53.612;7.278;2023-04-25T09:11:34;101091.75;;;8.87;100.00
5996;BME280;3026;53.612;7.278;2023-04-25T09:14:12;101102.09;;;9.01;100.00
5996;BME280;3026;53.612;7.278;2023-04-25T09:16:58;101115.28;;;9.31;100.00
5996;BME280;3026;53.612;7.278;2023-04-25T09:19:26;101097.59;;;9.53;100.00
5996;BME280;3026;53.612;7.278;2023-04-25T09:21:56;101104.97;;;9.61;100.00
5996;BME280;3026;53.612;7.278;2023-04-25T09:24:34;101117.56;;;9.62;100.00
5996;BME280;3026;53.612;7.278;2023-04-25T09:27:03;101096.41;;;9.56;100.00
5996;BME280;3026;53.612;7.278;2023-04-25T09:29:31;101097.84;;;9.42;100.00
5996;BME280;3026;53.612;7.278;2023-04-25T09:32:11;101106.53;;;9.46;100.00
5996;BME280;3026;53.612;7.278;2023-04-25T09:34:39;101098.38;;;9.72;100.00
5996;BME280;3026;53.612;7.278;2023-04-25T09:37:09;101109.56;;;9.94;100.00
5996;BME280;3026;53.612;7.278;2023-04-25T09:39:36;101109.53;;;9.86;100.00
5996;BME280;3026;53.612;7.278;2023-04-25T09:42:03;101121.41;;;9.77;100.00
5996;BME280;3026;53.612;7.278;2023-04-25T09:44:30;101129.50;;;9.69;100.00
5996;BME280;3026;53.612;7.278;2023-04-25T09:46:57;101129.41;;;9.53;100.00
5996;BME280;3026;53.612;7.278;2023-04-25T09:49:25;101141.22;;;9.44;100.00
5996;BME280;3026;53.612;7.278;2023-04-25T09:51:55;101138.16;;;9.39;100.00
5996;BME280;3026;53.612;7.278;2023-04-25T09:54:25;101161.31;;;9.43;100.00
5996;BME280;3026;53.612;7.278;2023-04-25T09:56:53;101155.22;;;9.49;100.00
5996;BME280;3026;53.612;7.278;2023-04-25T09:59:20;101153.50;;;9.48;100.00
5996;BME280;3026;53.612;7.278;2023-04-25T10:01:48;101151.81;;;9.47;100.00
5996;BME280;3026;53.612;7.278;2023-04-25T10:04:19;101162.06;;;9.53;100.00
5996;BME280;3026;53.612;7.278;2023-04-25T10:06:48;101148.25;;;9.72;100.00
5996;BME280;3026;53.612;7.278;2023-04-25T10:09:16;101154.91;;;9.96;100.00
5996;BME280;3026;53.612;7.278;2023-04-25T10:11:46;101155.59;;;9.98;100.00
5996;BME280;3026;53.612;7.278;2023-04-25T10:14:14;101170.53;;;10.19;100.00
5996;BME280;3026;53.612;7.278;2023-04-25T10:16:42;101181.72;;;10.16;100.00
5996;BME280;3026;53.612;7.278;2023-04-25T10:19:09;101168.50;;;9.96;100.00
5996;BME280;3026;53.612;7.278;2023-04-25T10:21:54;101177.25;;;9.81;100.00
5996;BME280;3026;53.612;7.278;2023-04-25T10:24:22;101180.03;;;9.89;100.00
5996;BME280;3026;53.612;7.278;2023-04-25T10:26:51;101179.81;;;10.09;100.00
5996;BME280;3026;53.612;7.278;2023-04-25T10:29:22;101174.84;;;10.30;100.00
5996;BME280;3026;53.612;7.278;2023-04-25T10:31:49;101186.69;;;10.47;100.00
5996;BME280;3026;53.612;7.278;2023-04-25T10:34:16;101183.84;;;10.57;100.00
5996;BME280;3026;53.612;7.278;2023-04-25T10:36:49;101183.25;;;10.79;100.00
5996;BME280;3026;53.612;7.278;2023-04-25T10:39:22;101197.94;;;10.94;100.00
5996;BME280;3026;53.612;7.278;2023-04-25T10:41:55;101198.59;;;10.88;100.00
5996;BME280;3026;53.612;7.278;2023-04-25T10:44:26;101196.22;;;10.85;100.00
5996;BME280;3026;53.612;7.278;2023-04-25T10:46:55;101204.75;;;10.98;100.00
5996;BME280;3026;53.612;7.278;2023-04-25T10:49:32;101204.63;;;11.08;100.00
5996;BME280;3026;53.612;7.278;2023-04-25T10:52:13;101183.66;;;11.08;100.00
5996;BME280;3026;53.612;7.278;2023-04-25T10:54:41;101196.25;;;11.09;100.00
5996;BME280;3026;53.612;7.278;2023-04-25T10:57:28;101222.03;;;11.07;100.00
5996;BME280;3026;53.612;7.278;2023-04-25T10:59:58;101205.44;;;10.92;100.00
5996;BME280;3026;53.612;7.278;2023-04-25T11:02:26;101215.16;;;10.95;100.00
5996;BME280;3026;53.612;7.278;2023-04-25T11:04:53;101205.78;;;10.89;100.00
5996;BME280;3026;53.612;7.278;2023-04-25T11:07:29;101218.19;;;10.84;100.00
5996;BME280;3026;53.612;7.278;2023-04-25T11:10:01;101228.94;;;10.77;100.00
5996;BME280;3026;53.612;7.278;2023-04-25T11:12:31;101210.28;;;10.64;100.00
5996;BME280;3026;53.612;7.278;2023-04-25T11:14:59;101224.81;;;10.73;100.00
5996;BME280;3026;53.612;7.278;2023-04-25T11:17:26;101220.72;;;10.69;100.00
5996;BME280;3026;53.612;7.278;2023-04-25T11:19:53;101212.22;;;10.80;100.00
5996;BME280;3026;53.612;7.278;2023-04-25T11:22:21;101219.22;;;10.82;100.00
5996;BME280;3026;53.612;7.278;2023-04-25T11:24:48;101220.59;;;10.78;100.00
5996;BME280;3026;53.612;7.278;2023-04-25T11:27:15;101221.25;;;10.80;100.00
5996;BME280;3026;53.612;7.278;2023-04-25T11:29:44;101227.63;;;10.89;100.00
5996;BME280;3026;53.612;7.278;2023-04-25T11:32:14;101225.19;;;10.78;100.00
5996;BME280;3026;53.612;7.278;2023-04-25T11:34:43;101221.81;;;10.92;100.00
5996;BME280;3026;53.612;7.278;2023-04-25T11:37:11;101220.63;;;10.95;100.00
5996;BME280;3026;53.612;7.278;2023-04-25T11:39:42;101224.50;;;10.84;100.00
5996;BME280;3026;53.612;7.278;2023-04-25T11:42:11;101227.44;;;10.99;100.00
5996;BME280;3026;53.612;7.278;2023-04-25T11:44:38;101226.31;;;11.18;100.00
5996;BME280;3026;53.612;7.278;2023-04-25T11:47:07;101221.59;;;11.36;100.00
5996;BME280;3026;53.612;7.278;2023-04-25T11:49:35;101224.66;;;11.41;100.00
5996;BME280;3026;53.612;7.278;2023-04-25T11:52:02;101234.19;;;11.45;100.00
5996;BME280;3026;53.612;7.278;2023-04-25T11:54:29;101231.50;;;11.53;100.00
5996;BME280;3026;53.612;7.278;2023-04-25T11:56:56;101228.78;;;11.61;100.00
5996;BME280;3026;53.612;7.278;2023-04-25T11:59:24;101239.69;;;11.61;100.00
5996;BME280;3026;53.612;7.278;2023-04-25T12:01:52;101235.94;;;11.46;100.00
5996;BME280;3026;53.612;7.278;2023-04-25T12:04:22;101246.88;;;11.46;100.00
5996;BME280;3026;53.612;7.278;2023-04-25T12:06:50;101248.22;;;11.50;100.00
5996;BME280;3026;53.612;7.278;2023-04-25T12:09:19;101258.31;;;11.58;100.00
5996;BME280;3026;53.612;7.278;2023-04-25T12:11:48;101251.47;;;11.54;100.00
5996;BME280;3026;53.612;7.278;2023-04-25T12:14:23;101254.69;;;11.57;100.00
5996;BME280;3026;53.612;7.278;2023-04-25T12:16:50;101254.88;;;11.64;100.00
5996;BME280;3026;53.612;7.278;2023-04-25T12:19:21;101267.22;;;11.84;100.00
5996;BME280;3026;53.612;7.278;2023-04-25T12:21:48;101269.75;;;11.61;100.00
5996;BME280;3026;53.612;7.278;2023-04-25T12:24:16;101281.31;;;11.39;100.00
5996;BME280;3026;53.612;7.278;2023-04-25T12:26:48;101272.75;;;11.26;100.00
5996;BME280;3026;53.612;7.278;2023-04-25T12:29:20;101274.06;;;11.14;100.00
5996;BME280;3026;53.612;7.278;2023-04-25T12:31:48;101280.38;;;11.14;100.00
5996;BME280;3026;53.612;7.278;2023-04-25T12:34:15;101275.09;;;11.21;100.00
5996;BME280;3026;53.612;7.278;2023-04-25T12:36:43;101277.88;;;11.29;100.00
5996;BME280;3026;53.612;7.278;2023-04-25T12:39:14;101289.44;;;11.23;100.00
5996;BME280;3026;53.612;7.278;2023-04-25T12:41:42;101279.84;;;11.10;100.00
5996;BME280;3026;53.612;7.278;2023-04-25T12:44:09;101286.44;;;10.92;100.00
5996;BME280;3026;53.612;7.278;2023-04-25T12:46:36;101286.09;;;10.95;100.00
5996;BME280;3026;53.612;7.278;2023-04-25T12:49:04;101285.31;;;11.10;100.00
5996;BME280;3026;53.612;7.278;2023-04-25T12:51:31;101285.63;;;11.07;100.00
5996;BME280;3026;53.612;7.278;2023-04-25T12:53:59;101288.19;;;11.09;100.00
5996;BME280;3026;53.612;7.278;2023-04-25T12:56:26;101282.59;;;11.19;100.00
5996;BME280;3026;53.612;7.278;2023-04-25T12:58:54;101285.72;;;11.24;100.00
5996;BME280;3026;53.612;7.278;2023-04-25T13:01:21;101289.41;;;11.06;100.00
5996;BME280;3026;53.612;7.278;2023-04-25T13:03:48;101295.09;;;10.87;100.00
5996;BME280;3026;53.612;7.278;2023-04-25T13:06:16;101288.19;;;10.67;100.00
5996;BME280;3026;53.612;7.278;2023-04-25T13:08:43;101305.88;;;10.55;100.00
5996;BME280;3026;53.612;7.278;2023-04-25T13:11:11;101299.97;;;10.41;100.00